ADDS METAR Data INFO
IDs: Format: Raw Decoded Include TAF

Data at: 0836 UTC 21 Oct 2017

KI19 210830Z AUTO 17003KT 10SM CLR 12/10 A3021 RMK AO2 T01170100
KI19 210811Z AUTO 00000KT 10SM CLR 12/10 A3021 RMK AO2 T01150097
KI19 210751Z AUTO 00000KT 10SM CLR 11/09 A3020 RMK AO2 T01050093
KI19 210731Z AUTO 00000KT 10SM CLR 13/10 A3020 RMK AO2 T01340101
KI19 210711Z AUTO 16003KT 10SM CLR 11/09 A3020 RMK AO2 T01100094
KI19 210650Z AUTO 00000KT 10SM CLR 12/10 A3021 RMK AO2 T01220096
KI19 210631Z AUTO 16003KT 10SM CLR 13/10 A3022 RMK AO2 T01260099
KI19 210611Z AUTO 17003KT 10SM CLR 12/10 A3022 RMK AO2 T01200097
KI19 210550Z AUTO 00000KT 10SM CLR 14/10 A3022 RMK AO2 T01350101 10196 20118 402380079
KI19 210531Z AUTO 19003KT 10SM CLR 13/10 A3022 RMK AO2 T01270101
KI19 210511Z AUTO 00000KT 10SM CLR 12/10 A3022 RMK AO2 T01200099
KI19 210450Z AUTO 00000KT 10SM CLR 14/10 A3022 RMK AO2 T01360100
KI19 210431Z AUTO 00000KT 10SM CLR 14/10 A3022 RMK AO2 T01420100
KI19 210411Z AUTO 00000KT 10SM CLR 15/10 A3022 RMK AO2 T01540101
KI19 210350Z AUTO 17005KT 10SM CLR 16/10 A3022 RMK AO2 T01550102
KI19 210331Z AUTO 16004KT 10SM CLR 14/10 A3023 RMK AO2 T01440100
KI19 210311Z AUTO 17004KT 10SM CLR 15/11 A3022 RMK AO2 T01540105
KI19 210250Z AUTO 17003KT 10SM CLR 15/11 A3022 RMK AO2 T01470105
KI19 210231Z AUTO 00000KT 10SM CLR 14/11 A3022 RMK AO2 T01440105
KI19 210211Z AUTO 00000KT 10SM CLR 15/11 A3022 RMK AO2 T01520106
KI19 210150Z AUTO 00000KT 10SM CLR 16/11 A3022 RMK AO2 T01620106
KI19 210131Z AUTO 18003KT 10SM CLR 17/11 A3021 RMK AO2 T01650105
KI19 210107Z AUTO 17004KT 10SM CLR 19/10 A3021 RMK AO2 T01850101
KI19 210046Z AUTO 16004KT 10SM CLR 19/10 A3022 RMK AO2 T01860101
KI19 210031Z AUTO 16005KT 10SM CLR 19/10 A3022 RMK AO2 T01890100
KI19 210010Z AUTO 17004KT 10SM CLR 20/10 A3022 RMK AO2 T01960098
KI19 202351Z AUTO 17003KT 10SM CLR 20/10 A3022 RMK AO2 T01950102 10238 20189
KI19 202331Z AUTO 19003KT 10SM CLR 19/11 A3022 RMK AO2 T01920107
KI19 202311Z AUTO 00000KT 10SM CLR 21/10 A3021 RMK AO2 T02080104
KI19 202249Z AUTO 00000KT 10SM CLR 22/10 A3021 RMK AO2 T02160102
KI19 202231Z AUTO 00000KT 10SM CLR 22/10 A3021 RMK AO2 T02210102
KI19 202211Z AUTO 00000KT 10SM CLR 23/10 A3021 RMK AO2 T02250103
KI19 202151Z AUTO 22004KT 10SM CLR 23/10 A3021 RMK AO2 T02260103
KI19 202131Z AUTO 20004KT 10SM CLR 23/10 A3021 RMK AO2 T02340095
KI19 202111Z AUTO 20004KT 10SM CLR 24/10 A3021 RMK AO2 T02360101
KI19 202051Z AUTO 20003KT 10SM CLR 24/10 A3021 RMK AO2 T02370097
KI19 202031Z AUTO 21006KT 10SM CLR 24/10 A3022 RMK AO2 T02380101
KI19 202011Z AUTO 21005KT 10SM CLR 24/09 A3022 RMK AO2 T02370092
KI19 201950Z AUTO 21005KT 10SM CLR 24/10 A3022 RMK AO2 T02370098
KI19 201931Z AUTO 00000KT 10SM CLR 24/10 A3023 RMK AO2 T02370104
KI19 201911Z AUTO 19003KT 10SM CLR 24/10 A3024 RMK AO2 T02350100
KI19 201850Z AUTO 22006KT 10SM CLR 23/10 A3024 RMK AO2 T02330096
KI19 201831Z AUTO 22004KT 10SM CLR 23/11 A3025 RMK AO2 T02310107
KI19 201811Z AUTO 18004KT 7SM CLR 23/10 A3026 RMK AO2 T02300104
KI19 201751Z AUTO 16005KT 10SM CLR 23/11 A3027 RMK AO2 T02280107 10228 20081
KI19 201730Z AUTO 00000KT 10SM CLR 22/11 A3029 RMK AO2 T02200105
KI19 201711Z AUTO 22004KT 10SM CLR 22/11 A3029 RMK AO2 T02200109
KI19 201650Z AUTO 00000KT 10SM CLR 22/11 A3031 RMK AO2 T02150108
KI19 201631Z AUTO 00000KT 10SM CLR 21/11 A3031 RMK AO2 T02100110
KI19 201611Z AUTO 00000KT 10SM CLR 20/11 A3032 RMK AO2 T02010109
KI19 201550Z AUTO 00000KT 10SM CLR 20/12 A3032 RMK AO2 T01960116
KI19 201531Z AUTO 00000KT 10SM CLR 19/11 A3033 RMK AO2 T01860114
KI19 201511Z AUTO 00000KT 10SM CLR 18/12 A3033 RMK AO2 T01760118
KI19 201451Z AUTO 00000KT 10SM CLR 17/12 A3034 RMK AO2 T01690122
KI19 201431Z AUTO 00000KT 10SM CLR 16/12 A3034 RMK AO2 T01600119
KI19 201411Z AUTO 00000KT 10SM CLR 15/12 A3034 RMK AO2 T01480116
KI19 201351Z AUTO 00000KT 10SM CLR 14/12 A3033 RMK AO2 T01360116
KI19 201331Z AUTO 22003KT 7SM CLR 13/11 A3033 RMK AO2 T01260111
KI19 201311Z AUTO 00000KT 7SM CLR 12/11 A3032 RMK AO2 T01160106
KI19 201251Z AUTO 00000KT 4SM BR CLR 10/09 A3031 RMK AO2 T00960092
KI19 201231Z AUTO 00000KT 2 1/2SM BR CLR 09/08 A3031 RMK AO2 T00860084
KI19 201211Z AUTO 00000KT 1 1/4SM BR VV007 08/08 A3031 RMK AO2 T00830079
KI19 201151Z AUTO 00000KT 2SM BR CLR 08/08 A3030 RMK AO2 VIS 1 1/4V4 T00820078 10131 20079
KI19 201131Z AUTO 00000KT 5SM BR CLR 08/08 A3030 RMK AO2 T00840079
KI19 201111Z AUTO 00000KT 1 3/4SM BR VV007 08/08 A3029 RMK AO2 T00840080
KI19 201051Z AUTO 00000KT 4SM BR CLR 08/08 A3029 RMK AO2 T00810077
KI19 201031Z AUTO 00000KT 7SM CLR 09/08 A3028 RMK AO2 T00890084
KI19 201011Z AUTO 00000KT 7SM CLR 09/09 A3028 RMK AO2 T00910086
KI19 200951Z AUTO 00000KT 7SM CLR 09/09 A3028 RMK AO2 T00940086
KI19 200931Z AUTO 00000KT 4SM BR CLR 10/09 A3027 RMK AO2 T00950088
KI19 200911Z AUTO 00000KT 7SM CLR 10/09 A3027 RMK AO2 T01010091
KI19 200851Z AUTO 00000KT 10SM CLR 10/09 A3026 RMK AO2 T00980091
KI19 200831Z AUTO 00000KT 10SM CLR 10/09 A3026 RMK AO2 T01000092
KI19 200810Z AUTO 00000KT 10SM CLR 10/09 A3026 RMK AO2 T00950087
KI19 200751Z AUTO 21003KT 10SM CLR 10/09 A3026 RMK AO2 T01020090
KI19 200731Z AUTO 00000KT 10SM CLR 11/09 A3026 RMK AO2 T01050091
KI19 200711Z AUTO 23003KT 10SM CLR 11/09 A3026 RMK AO2 T01090092
KI19 200651Z AUTO 00000KT 10SM CLR 12/10 A3026 RMK AO2 T01150097
KI19 200631Z AUTO 00000KT 10SM CLR 11/10 A3026 RMK AO2 T01130096
KI19 200611Z AUTO 00000KT 10SM CLR 12/10 A3024 RMK AO2 T01230097
KI19 200551Z AUTO 00000KT 10SM CLR 13/10 A3024 RMK AO2 T01300097 10176 20125 402220086
KI19 200531Z AUTO 22003KT 10SM CLR 13/10 A3024 RMK AO2 T01260095
KI19 200511Z AUTO 22003KT 10SM CLR 14/10 A3024 RMK AO2 T01350096
KI19 200451Z AUTO 23004KT 10SM CLR 13/09 A3024 RMK AO2 T01330094
KI19 200430Z AUTO 24004KT 10SM CLR 13/10 A3024 RMK AO2 T01330095
KI19 200411Z AUTO 22005KT 10SM CLR 14/10 A3024 RMK AO2 T01360095
KI19 200351Z AUTO 22006KT 10SM CLR 14/10 A3023 RMK AO2 T01400095
KI19 200331Z AUTO 23006KT 10SM CLR 14/10 A3023 RMK AO2 T01410095
KI19 200311Z AUTO 23005KT 10SM CLR 15/10 A3023 RMK AO2 T01450095
KI19 200251Z AUTO 23004KT 10SM CLR 15/10 A3023 RMK AO2 T01470096
KI19 200231Z AUTO 22004KT 10SM CLR 15/10 A3023 RMK AO2 T01460098
KI19 200211Z AUTO 21005KT 10SM CLR 15/10 A3023 RMK AO2 T01470097
KI19 200151Z AUTO 21005KT 10SM CLR 16/10 A3022 RMK AO2 T01550097
KI19 200131Z AUTO 21005KT 10SM CLR 15/10 A3022 RMK AO2 T01520098
KI19 200111Z AUTO 22005KT 10SM CLR 16/10 A3023 RMK AO2 T01580097
KI19 200051Z AUTO 23006KT 10SM CLR 16/10 A3022 RMK AO2 T01580097
KI19 200031Z AUTO 21005KT 10SM CLR 17/10 A3022 RMK AO2 T01680098
KI19 200011Z AUTO 22006KT 10SM CLR 17/10 A3022 RMK AO2 T01690098
KI19 192350Z AUTO 20005KT 10SM CLR 18/10 A3022 RMK AO2 T01790098 10222 20179
KI19 192331Z AUTO 21005KT 10SM CLR 18/10 A3021 RMK AO2 T01790098
KI19 192310Z AUTO 21005KT 10SM CLR 18/10 A3021 RMK AO2 T01810098
KI19 192251Z AUTO 22005KT 10SM CLR 19/10 A3021 RMK AO2 T01880096
KI19 192230Z AUTO 23005KT 10SM CLR 20/10 A3020 RMK AO2 T01980097
KI19 192211Z AUTO 22006KT 10SM CLR 21/10 A3020 RMK AO2 T02050098
KI19 192151Z AUTO 22009KT 10SM CLR 21/10 A3020 RMK AO2 T02100097
KI19 192131Z AUTO 23006KT 10SM CLR 22/09 A3019 RMK AO2 T02150093
KI19 192111Z AUTO 22010KT 10SM CLR 22/09 A3019 RMK AO2 T02170093
KI19 192051Z AUTO 26010G14KT 10SM CLR 22/09 A3020 RMK AO2 T02200091